sensor_id;sensor_type;location;lat;lon;timestamp;pressure;altitude;pressure_sealevel;temperature;humidity
27425;BME280;15244;49.088;11.886;2022-08-24T00:01:04;96094.53;;;23.60;43.13
27425;BME280;15244;49.088;11.886;2022-08-24T00:06:10;96094.34;;;23.54;43.46
27425;BME280;15244;49.088;11.886;2022-08-24T00:11:12;96083.81;;;23.49;43.46
27425;BME280;15244;49.088;11.886;2022-08-24T00:16:15;96085.22;;;23.45;43.79
27425;BME280;15244;49.088;11.886;2022-08-24T00:21:17;96089.38;;;23.40;43.72
27425;BME280;15244;49.088;11.886;2022-08-24T00:26:19;96097.84;;;23.36;43.79
27425;BME280;15244;49.088;11.886;2022-08-24T00:31:29;96090.09;;;23.31;44.14
27425;BME280;15244;49.088;11.886;2022-08-24T00:36:32;96089.50;;;23.27;44.15
27425;BME280;15244;49.088;11.886;2022-08-24T00:41:38;96091.19;;;23.25;44.15
27425;BME280;15244;49.088;11.886;2022-08-24T00:46:55;96083.88;;;23.18;44.30
27425;BME280;15244;49.088;11.886;2022-08-24T00:52:10;96077.69;;;23.14;44.26
27425;BME280;15244;49.088;11.886;2022-08-24T00:57:16;96090.97;;;23.10;44.47
27425;BME280;15244;49.088;11.886;2022-08-24T01:02:24;96087.53;;;23.06;44.63
27425;BME280;15244;49.088;11.886;2022-08-24T01:07:28;96097.56;;;23.03;44.70
27425;BME280;15244;49.088;11.886;2022-08-24T01:12:32;96098.50;;;23.00;45.00
27425;BME280;15244;49.088;11.886;2022-08-24T01:17:35;96100.59;;;22.96;44.99
27425;BME280;15244;49.088;11.886;2022-08-24T01:28:38;96078.44;;;22.83;45.32
27425;BME280;15244;49.088;11.886;2022-08-24T01:33:41;96078.28;;;22.78;45.30
27425;BME280;15244;49.088;11.886;2022-08-24T01:38:44;96068.09;;;22.75;45.24
27425;BME280;15244;49.088;11.886;2022-08-24T01:43:47;96075.78;;;22.70;45.26
27425;BME280;15244;49.088;11.886;2022-08-24T01:48:48;96079.47;;;22.67;45.42
27425;BME280;15244;49.088;11.886;2022-08-24T01:53:50;96076.50;;;22.62;45.43
27425;BME280;15244;49.088;11.886;2022-08-24T01:58:52;96069.97;;;22.56;45.02
27425;BME280;15244;49.088;11.886;2022-08-24T02:03:56;96073.34;;;22.50;44.84
27425;BME280;15244;49.088;11.886;2022-08-24T02:08:59;96075.94;;;22.45;45.17
27425;BME280;15244;49.088;11.886;2022-08-24T02:14:02;96079.63;;;22.42;45.48
27425;BME280;15244;49.088;11.886;2022-08-24T02:19:06;96084.41;;;22.41;46.08
27425;BME280;15244;49.088;11.886;2022-08-24T02:24:09;96083.31;;;22.39;46.00
27425;BME280;15244;49.088;11.886;2022-08-24T02:29:11;96086.09;;;22.39;46.39
27425;BME280;15244;49.088;11.886;2022-08-24T02:34:13;96088.06;;;22.38;46.49
27425;BME280;15244;49.088;11.886;2022-08-24T02:39:15;96091.75;;;22.35;46.43
27425;BME280;15244;49.088;11.886;2022-08-24T02:44:20;96090.22;;;22.34;46.54
27425;BME280;15244;49.088;11.886;2022-08-24T02:49:21;96087.13;;;22.32;46.59
27425;BME280;15244;49.088;11.886;2022-08-24T02:54:24;96090.03;;;22.28;46.77
27425;BME280;15244;49.088;11.886;2022-08-24T02:59:26;96094.50;;;22.26;46.61
27425;BME280;15244;49.088;11.886;2022-08-24T03:04:28;96096.16;;;22.23;46.56
27425;BME280;15244;49.088;11.886;2022-08-24T03:09:30;96095.50;;;22.19;46.65
27425;BME280;15244;49.088;11.886;2022-08-24T03:14:32;96101.63;;;22.14;46.67
27425;BME280;15244;49.088;11.886;2022-08-24T03:19:36;96108.06;;;22.11;47.09
27425;BME280;15244;49.088;11.886;2022-08-24T03:24:39;96098.75;;;22.05;47.07
27425;BME280;15244;49.088;11.886;2022-08-24T03:29:41;96103.66;;;22.01;47.30
27425;BME280;15244;49.088;11.886;2022-08-24T03:34:44;96105.78;;;21.97;46.96
27425;BME280;15244;49.088;11.886;2022-08-24T03:39:46;96103.91;;;21.94;47.30
27425;BME280;15244;49.088;11.886;2022-08-24T03:44:48;96113.59;;;21.89;47.25
27425;BME280;15244;49.088;11.886;2022-08-24T03:49:51;96106.16;;;21.86;47.76
27425;BME280;15244;49.088;11.886;2022-08-24T03:54:54;96112.63;;;21.83;47.92
27425;BME280;15244;49.088;11.886;2022-08-24T03:59:56;96119.03;;;21.80;47.40
27425;BME280;15244;49.088;11.886;2022-08-24T04:04:58;96119.16;;;21.76;47.77
27425;BME280;15244;49.088;11.886;2022-08-24T04:10:00;96108.63;;;21.71;47.51
27425;BME280;15244;49.088;11.886;2022-08-24T04:15:03;96115.97;;;21.65;47.63
27425;BME280;15244;49.088;11.886;2022-08-24T04:20:06;96112.53;;;21.61;47.38
27425;BME280;15244;49.088;11.886;2022-08-24T04:25:11;96114.34;;;21.55;47.59
27425;BME280;15244;49.088;11.886;2022-08-24T04:30:13;96115.22;;;21.52;48.10
27425;BME280;15244;49.088;11.886;2022-08-24T04:35:39;96115.69;;;21.50;48.04
27425;BME280;15244;49.088;11.886;2022-08-24T04:40:43;96118.88;;;21.49;48.05
27425;BME280;15244;49.088;11.886;2022-08-24T04:45:48;96120.88;;;21.48;48.36
27425;BME280;15244;49.088;11.886;2022-08-24T04:50:51;96134.75;;;21.48;48.39
27425;BME280;15244;49.088;11.886;2022-08-24T04:55:54;96135.53;;;21.49;48.59
27425;BME280;15244;49.088;11.886;2022-08-24T05:00:56;96134.31;;;21.50;48.62
27425;BME280;15244;49.088;11.886;2022-08-24T05:05:58;96138.63;;;21.51;48.91
27425;BME280;15244;49.088;11.886;2022-08-24T05:11:04;96128.66;;;21.53;48.80
27425;BME280;15244;49.088;11.886;2022-08-24T05:16:11;96134.06;;;21.57;49.34
27425;BME280;15244;49.088;11.886;2022-08-24T05:21:17;96137.94;;;21.59;49.28
27425;BME280;15244;49.088;11.886;2022-08-24T05:26:24;96136.28;;;21.62;49.22
27425;BME280;15244;49.088;11.886;2022-08-24T05:31:29;96142.50;;;21.66;49.68
27425;BME280;15244;49.088;11.886;2022-08-24T05:36:37;96133.28;;;21.69;49.68
27425;BME280;15244;49.088;11.886;2022-08-24T05:41:42;96146.16;;;21.76;49.55
27425;BME280;15244;49.088;11.886;2022-08-24T05:46:56;96149.13;;;21.81;49.80
27425;BME280;15244;49.088;11.886;2022-08-24T05:51:58;96153.69;;;21.88;49.72
27425;BME280;15244;49.088;11.886;2022-08-24T05:57:00;96161.78;;;21.95;49.98
27425;BME280;15244;49.088;11.886;2022-08-24T06:02:10;96161.50;;;22.02;50.11
27425;BME280;15244;49.088;11.886;2022-08-24T06:07:13;96162.50;;;22.08;49.86
27425;BME280;15244;49.088;11.886;2022-08-24T06:12:19;96149.91;;;22.17;50.16
27425;BME280;15244;49.088;11.886;2022-08-24T06:17:21;96159.56;;;22.25;49.94
27425;BME280;15244;49.088;11.886;2022-08-24T06:22:24;96151.75;;;22.33;50.08
27425;BME280;15244;49.088;11.886;2022-08-24T06:27:27;96155.06;;;22.40;49.95
27425;BME280;15244;49.088;11.886;2022-08-24T06:32:31;96161.94;;;22.48;49.79
27425;BME280;15244;49.088;11.886;2022-08-24T06:37:34;96156.56;;;22.54;49.81
27425;BME280;15244;49.088;11.886;2022-08-24T06:42:35;96159.22;;;22.58;49.87
27425;BME280;15244;49.088;11.886;2022-08-24T06:47:49;96165.09;;;22.60;49.72
27425;BME280;15244;49.088;11.886;2022-08-24T06:52:52;96171.63;;;22.66;49.70
27425;BME280;15244;49.088;11.886;2022-08-24T06:57:54;96174.59;;;22.71;49.64
27425;BME280;15244;49.088;11.886;2022-08-24T07:02:56;96174.31;;;22.79;49.85
27425;BME280;15244;49.088;11.886;2022-08-24T07:07:58;96183.97;;;22.87;49.82
27425;BME280;15244;49.088;11.886;2022-08-24T07:13:00;96184.00;;;22.96;49.74
27425;BME280;15244;49.088;11.886;2022-08-24T07:18:02;96182.25;;;23.02;49.51
27425;BME280;15244;49.088;11.886;2022-08-24T07:23:04;96188.63;;;23.12;49.62
27425;BME280;15244;49.088;11.886;2022-08-24T07:28:07;96190.69;;;23.21;49.44
27425;BME280;15244;49.088;11.886;2022-08-24T07:33:13;96189.16;;;23.29;49.41
27425;BME280;15244;49.088;11.886;2022-08-24T07:38:15;96192.00;;;23.38;49.28
27425;BME280;15244;49.088;11.886;2022-08-24T07:43:17;96187.69;;;23.46;49.17
27425;BME280;15244;49.088;11.886;2022-08-24T07:48:18;96185.72;;;23.56;48.96
27425;BME280;15244;49.088;11.886;2022-08-24T07:53:21;96184.22;;;23.64;49.02
27425;BME280;15244;49.088;11.886;2022-08-24T07:58:33;96178.81;;;23.70;48.75
27425;BME280;15244;49.088;11.886;2022-08-24T08:03:36;96177.00;;;23.76;48.72
27425;BME280;15244;49.088;11.886;2022-08-24T08:08:40;96180.59;;;23.86;48.71
27425;BME280;15244;49.088;11.886;2022-08-24T08:13:41;96179.38;;;23.96;48.31
27425;BME280;15244;49.088;11.886;2022-08-24T08:18:49;96184.50;;;24.07;48.55
27425;BME280;15244;49.088;11.886;2022-08-24T08:24:09;96192.09;;;24.15;48.23
27425;BME280;15244;49.088;11.886;2022-08-24T08:29:27;96192.41;;;24.27;48.23
27425;BME280;15244;49.088;11.886;2022-08-24T08:34:31;96193.03;;;24.40;48.04
27425;BME280;15244;49.088;11.886;2022-08-24T08:39:34;96190.13;;;24.53;47.93
27425;BME280;15244;49.088;11.886;2022-08-24T08:44:57;96188.75;;;24.67;47.87
27425;BME280;15244;49.088;11.886;2022-08-24T08:50:22;96188.25;;;24.77;47.59
27425;BME280;15244;49.088;11.886;2022-08-24T09:00:47;96188.25;;;24.86;47.07
27425;BME280;15244;49.088;11.886;2022-08-24T09:22:20;96185.72;;;25.16;46.88
27425;BME280;15244;49.088;11.886;2022-08-24T09:32:59;96181.34;;;25.34;46.33
27425;BME280;15244;49.088;11.886;2022-08-24T09:54:58;96184.91;;;25.67;45.59
27425;BME280;15244;49.088;11.886;2022-08-24T10:00:13;96180.06;;;25.77;45.48
27425;BME280;15244;49.088;11.886;2022-08-24T10:10:53;96171.13;;;25.97;45.17
27425;BME280;15244;49.088;11.886;2022-08-24T10:16:13;96181.00;;;26.07;45.20
27425;BME280;15244;49.088;11.886;2022-08-24T10:21:35;96174.59;;;26.16;44.88
27425;BME280;15244;49.088;11.886;2022-08-24T10:54:17;96156.34;;;26.98;42.91
27425;BME280;15244;49.088;11.886;2022-08-24T11:05:07;96150.56;;;27.02;42.75
27425;BME280;15244;49.088;11.886;2022-08-24T11:10:16;96160.13;;;26.95;42.58
27425;BME280;15244;49.088;11.886;2022-08-24T11:15:28;96161.00;;;26.87;42.17
27425;BME280;15244;49.088;11.886;2022-08-24T11:20:38;96152.78;;;26.98;43.00
27425;BME280;15244;49.088;11.886;2022-08-24T11:25:51;96149.13;;;27.21;42.59
27425;BME280;15244;49.088;11.886;2022-08-24T11:30:53;96152.13;;;27.33;42.16
27425;BME280;15244;49.088;11.886;2022-08-24T11:35:56;96145.53;;;27.36;41.50
27425;BME280;15244;49.088;11.886;2022-08-24T11:41:10;96152.50;;;27.26;41.27
27425;BME280;15244;49.088;11.886;2022-08-24T11:46:47;96146.91;;;27.26;41.47
27425;BME280;15244;49.088;11.886;2022-08-24T12:03:22;96149.91;;;27.22;41.54
27425;BME280;15244;49.088;11.886;2022-08-24T12:08:41;96160.63;;;27.23;41.34
27425;BME280;15244;49.088;11.886;2022-08-24T12:19:09;96162.72;;;27.29;41.09
27425;BME280;15244;49.088;11.886;2022-08-24T12:29:45;96161.06;;;27.37;41.38
27425;BME280;15244;49.088;11.886;2022-08-24T12:34:59;96145.91;;;27.43;41.43
27425;BME280;15244;49.088;11.886;2022-08-24T12:45:13;96140.00;;;27.56;41.08
27425;BME280;15244;49.088;11.886;2022-08-24T13:01:05;96137.69;;;27.90;40.93
27425;BME280;15244;49.088;11.886;2022-08-24T13:21:54;96113.31;;;28.37;40.39
27425;BME280;15244;49.088;11.886;2022-08-24T13:32:30;96114.34;;;28.60;40.31
27425;BME280;15244;49.088;11.886;2022-08-24T13:37:35;96115.72;;;28.70;39.73
27425;BME280;15244;49.088;11.886;2022-08-24T13:53:28;96113.56;;;28.86;39.69
27425;BME280;15244;49.088;11.886;2022-08-24T13:58:51;96109.44;;;29.07;39.41
27425;BME280;15244;49.088;11.886;2022-08-24T14:09:56;96109.38;;;29.33;38.86
27425;BME280;15244;49.088;11.886;2022-08-24T14:25:43;96105.34;;;29.77;38.13
27425;BME280;15244;49.088;11.886;2022-08-24T14:30:45;96107.47;;;29.88;37.61
27425;BME280;15244;49.088;11.886;2022-08-24T14:36:10;96104.41;;;29.92;37.66
27425;BME280;15244;49.088;11.886;2022-08-24T15:03:10;96092.16;;;30.00;37.07
27425;BME280;15244;49.088;11.886;2022-08-24T15:08:31;96094.22;;;30.00;37.20
27425;BME280;15244;49.088;11.886;2022-08-24T15:14:03;96095.22;;;29.97;37.30
27425;BME280;15244;49.088;11.886;2022-08-24T15:19:21;96090.91;;;29.96;37.22
27425;BME280;15244;49.088;11.886;2022-08-24T15:24:49;96082.22;;;30.05;37.36
27425;BME280;15244;49.088;11.886;2022-08-24T15:29:54;96080.22;;;30.17;36.82
27425;BME280;15244;49.088;11.886;2022-08-24T15:34:56;96080.53;;;30.24;36.79
27425;BME280;15244;49.088;11.886;2022-08-24T15:40:00;96076.72;;;30.28;36.52
27425;BME280;15244;49.088;11.886;2022-08-24T15:45:03;96085.16;;;30.28;36.44
27425;BME280;15244;49.088;11.886;2022-08-24T15:50:08;96084.38;;;30.27;36.66
27425;BME280;15244;49.088;11.886;2022-08-24T16:00:35;96070.09;;;30.36;36.78
27425;BME280;15244;49.088;11.886;2022-08-24T16:06:16;96070.38;;;30.55;36.60
27425;BME280;15244;49.088;11.886;2022-08-24T16:11:25;96071.44;;;30.75;36.05
27425;BME280;15244;49.088;11.886;2022-08-24T16:16:32;96068.91;;;30.94;35.99
27425;BME280;15244;49.088;11.886;2022-08-24T16:21:43;96066.63;;;30.98;35.57
27425;BME280;15244;49.088;11.886;2022-08-24T16:37:30;96079.88;;;30.80;35.29
27425;BME280;15244;49.088;11.886;2022-08-24T16:42:33;96076.81;;;30.67;35.31
27425;BME280;15244;49.088;11.886;2022-08-24T16:47:35;96074.97;;;30.58;35.40
27425;BME280;15244;49.088;11.886;2022-08-24T16:52:37;96074.47;;;30.54;35.43
27425;BME280;15244;49.088;11.886;2022-08-24T16:57:39;96073.97;;;30.56;35.51
27425;BME280;15244;49.088;11.886;2022-08-24T17:02:41;96068.84;;;30.60;35.22
27425;BME280;15244;49.088;11.886;2022-08-24T17:07:43;96076.81;;;30.61;34.95
27425;BME280;15244;49.088;11.886;2022-08-24T17:12:45;96073.22;;;30.66;35.16
27425;BME280;15244;49.088;11.886;2022-08-24T17:17:57;96073.22;;;30.72;35.08
27425;BME280;15244;49.088;11.886;2022-08-24T17:23:00;96075.00;;;30.75;34.27
27425;BME280;15244;49.088;11.886;2022-08-24T17:28:02;96068.88;;;30.77;34.52
27425;BME280;15244;49.088;11.886;2022-08-24T17:33:04;96075.50;;;30.74;34.08
27425;BME280;15244;49.088;11.886;2022-08-24T17:38:06;96072.97;;;30.64;33.91
27425;BME280;15244;49.088;11.886;2022-08-24T17:43:09;96079.31;;;30.48;33.87
27425;BME280;15244;49.088;11.886;2022-08-24T17:48:16;96079.28;;;30.31;34.05
27425;BME280;15244;49.088;11.886;2022-08-24T17:53:21;96085.84;;;30.11;34.39
27425;BME280;15244;49.088;11.886;2022-08-24T17:58:22;96076.28;;;29.92;34.53
27425;BME280;15244;49.088;11.886;2022-08-24T18:03:24;96077.97;;;29.72;34.75
27425;BME280;15244;49.088;11.886;2022-08-24T18:08:26;96078.38;;;29.54;34.81
27425;BME280;15244;49.088;11.886;2022-08-24T18:13:28;96084.66;;;29.37;34.70
27425;BME280;15244;49.088;11.886;2022-08-24T18:18:29;96090.16;;;29.21;35.29
27425;BME280;15244;49.088;11.886;2022-08-24T18:23:31;96087.94;;;29.04;35.63
27425;BME280;15244;49.088;11.886;2022-08-24T18:28:34;96098.53;;;28.89;35.89
27425;BME280;15244;49.088;11.886;2022-08-24T18:33:37;96094.31;;;28.73;36.08
27425;BME280;15244;49.088;11.886;2022-08-24T18:38:39;96101.31;;;28.57;36.10
27425;BME280;15244;49.088;11.886;2022-08-24T18:43:41;96104.19;;;28.42;36.48
27425;BME280;15244;49.088;11.886;2022-08-24T18:48:43;96114.72;;;28.27;36.75
27425;BME280;15244;49.088;11.886;2022-08-24T18:53:44;96117.13;;;28.14;37.11
27425;BME280;15244;49.088;11.886;2022-08-24T18:58:46;96127.88;;;28.00;37.31
27425;BME280;15244;49.088;11.886;2022-08-24T19:03:48;96125.16;;;27.85;37.44
27425;BME280;15244;49.088;11.886;2022-08-24T19:08:50;96123.16;;;27.71;37.56
27425;BME280;15244;49.088;11.886;2022-08-24T19:13:52;96134.69;;;27.58;37.71
27425;BME280;15244;49.088;11.886;2022-08-24T19:18:54;96133.75;;;27.47;38.27
27425;BME280;15244;49.088;11.886;2022-08-24T19:23:56;96136.38;;;27.35;38.14
27425;BME280;15244;49.088;11.886;2022-08-24T19:28:59;96139.00;;;27.24;38.69
27425;BME280;15244;49.088;11.886;2022-08-24T19:34:01;96127.88;;;27.15;38.55
27425;BME280;15244;49.088;11.886;2022-08-24T19:39:04;96130.50;;;27.03;38.88
27425;BME280;15244;49.088;11.886;2022-08-24T19:44:06;96127.81;;;26.94;39.39
27425;BME280;15244;49.088;11.886;2022-08-24T19:49:28;96136.00;;;26.83;39.17
27425;BME280;15244;49.088;11.886;2022-08-24T19:54:33;96132.50;;;26.73;39.72
27425;BME280;15244;49.088;11.886;2022-08-24T19:59:41;96127.78;;;26.65;39.65
27425;BME280;15244;49.088;11.886;2022-08-24T20:04:44;96140.00;;;26.52;40.14
27425;BME280;15244;49.088;11.886;2022-08-24T20:09:45;96145.47;;;26.47;40.34
27425;BME280;15244;49.088;11.886;2022-08-24T20:14:47;96139.47;;;26.39;40.34
27425;BME280;15244;49.088;11.886;2022-08-24T20:19:49;96144.66;;;26.31;40.55
27425;BME280;15244;49.088;11.886;2022-08-24T20:24:51;96154.94;;;26.25;40.61
27425;BME280;15244;49.088;11.886;2022-08-24T20:29:54;96145.69;;;26.19;40.81
27425;BME280;15244;49.088;11.886;2022-08-24T20:34:56;96144.53;;;26.11;41.31
27425;BME280;15244;49.088;11.886;2022-08-24T20:39:58;96154.03;;;26.04;41.14
27425;BME280;15244;49.088;11.886;2022-08-24T20:45:01;96151.59;;;25.97;41.64
27425;BME280;15244;49.088;11.886;2022-08-24T20:50:03;96151.16;;;25.89;41.75
27425;BME280;15244;49.088;11.886;2022-08-24T20:55:05;96159.59;;;25.80;42.16
27425;BME280;15244;49.088;11.886;2022-08-24T21:00:07;96164.25;;;25.74;42.17
27425;BME280;15244;49.088;11.886;2022-08-24T21:05:11;96155.47;;;25.66;42.05
27425;BME280;15244;49.088;11.886;2022-08-24T21:10:17;96153.00;;;25.59;42.37
27425;BME280;15244;49.088;11.886;2022-08-24T21:15:20;96147.75;;;25.52;42.78
27425;BME280;15244;49.088;11.886;2022-08-24T21:20:24;96145.81;;;25.43;42.68
27425;BME280;15244;49.088;11.886;2022-08-24T21:25:26;96150.50;;;25.37;42.89
27425;BME280;15244;49.088;11.886;2022-08-24T21:30:28;96148.34;;;25.32;42.89
27425;BME280;15244;49.088;11.886;2022-08-24T21:35:31;96146.19;;;25.27;42.92
27425;BME280;15244;49.088;11.886;2022-08-24T21:40:34;96147.59;;;25.22;43.17
27425;BME280;15244;49.088;11.886;2022-08-24T21:45:36;96153.31;;;25.19;43.54
27425;BME280;15244;49.088;11.886;2022-08-24T21:50:37;96146.34;;;25.14;43.56
27425;BME280;15244;49.088;11.886;2022-08-24T21:55:39;96140.16;;;25.10;43.41
27425;BME280;15244;49.088;11.886;2022-08-24T22:00:42;96144.66;;;25.07;43.60
27425;BME280;15244;49.088;11.886;2022-08-24T22:05:44;96135.69;;;25.03;43.77
27425;BME280;15244;49.088;11.886;2022-08-24T22:10:47;96136.63;;;25.00;44.17
27425;BME280;15244;49.088;11.886;2022-08-24T22:15:49;96130.44;;;24.96;44.08
27425;BME280;15244;49.088;11.886;2022-08-24T22:20:51;96129.84;;;24.92;44.16
27425;BME280;15244;49.088;11.886;2022-08-24T22:25:53;96123.63;;;24.88;44.44
27425;BME280;15244;49.088;11.886;2022-08-24T22:30:54;96130.94;;;24.85;44.37
27425;BME280;15244;49.088;11.886;2022-08-24T22:35:57;96123.19;;;24.80;44.59
27425;BME280;15244;49.088;11.886;2022-08-24T22:40:58;96124.28;;;24.74;44.49
27425;BME280;15244;49.088;11.886;2022-08-24T22:46:00;96117.34;;;24.69;44.78
27425;BME280;15244;49.088;11.886;2022-08-24T22:51:06;96117.19;;;24.63;44.96
27425;BME280;15244;49.088;11.886;2022-08-24T22:56:25;96113.47;;;24.57;45.07
27425;BME280;15244;49.088;11.886;2022-08-24T23:01:35;96109.78;;;24.51;45.07
27425;BME280;15244;49.088;11.886;2022-08-24T23:06:37;96118.78;;;24.46;45.35
27425;BME280;15244;49.088;11.886;2022-08-24T23:11:40;96109.75;;;24.42;45.26
27425;BME280;15244;49.088;11.886;2022-08-24T23:16:43;96103.56;;;24.38;45.46
27425;BME280;15244;49.088;11.886;2022-08-24T23:21:45;96100.63;;;24.32;45.48
27425;BME280;15244;49.088;11.886;2022-08-24T23:26:47;96108.34;;;24.28;45.79
27425;BME280;15244;49.088;11.886;2022-08-24T23:31:49;96099.41;;;24.24;45.65
27425;BME280;15244;49.088;11.886;2022-08-24T23:36:54;96094.44;;;24.19;45.94
27425;BME280;15244;49.088;11.886;2022-08-24T23:41:56;96100.31;;;24.12;46.16
27425;BME280;15244;49.088;11.886;2022-08-24T23:46:58;96094.13;;;24.08;46.28
27425;BME280;15244;49.088;11.886;2022-08-24T23:52:00;96086.88;;;24.01;46.21
27425;BME280;15244;49.088;11.886;2022-08-24T23:57:02;96088.25;;;23.96;46.44
